sensor_id;sensor_type;location;lat;lon;timestamp;temperature;humidity
30250;DHT22;17064;47.974;13.826;2023-02-04T00:02:09;3.50;99.90
30250;DHT22;17064;47.974;13.826;2023-02-04T00:07:09;3.50;99.90
30250;DHT22;17064;47.974;13.826;2023-02-04T00:12:11;3.50;99.90
30250;DHT22;17064;47.974;13.826;2023-02-04T00:17:11;3.40;99.90
30250;DHT22;17064;47.974;13.826;2023-02-04T00:22:12;3.30;99.90
30250;DHT22;17064;47.974;13.826;2023-02-04T00:27:13;3.30;99.90
30250;DHT22;17064;47.974;13.826;2023-02-04T00:32:14;3.10;99.90
30250;DHT22;17064;47.974;13.826;2023-02-04T00:37:14;3.00;99.90
30250;DHT22;17064;47.974;13.826;2023-02-04T00:42:15;2.70;99.90
30250;DHT22;17064;47.974;13.826;2023-02-04T00:47:16;2.70;99.90
30250;DHT22;17064;47.974;13.826;2023-02-04T00:52:17;2.70;99.90
30250;DHT22;17064;47.974;13.826;2023-02-04T00:57:18;2.90;99.90
30250;DHT22;17064;47.974;13.826;2023-02-04T01:02:19;3.20;99.90
30250;DHT22;17064;47.974;13.826;2023-02-04T01:07:19;3.30;99.90
30250;DHT22;17064;47.974;13.826;2023-02-04T01:12:20;3.20;99.90
30250;DHT22;17064;47.974;13.826;2023-02-04T01:17:22;3.20;99.90
30250;DHT22;17064;47.974;13.826;2023-02-04T01:22:23;3.30;99.90
30250;DHT22;17064;47.974;13.826;2023-02-04T01:27:23;3.30;99.90
30250;DHT22;17064;47.974;13.826;2023-02-04T01:32:24;3.40;99.90
30250;DHT22;17064;47.974;13.826;2023-02-04T01:37:25;3.50;99.90
30250;DHT22;17064;47.974;13.826;2023-02-04T01:42:25;3.50;99.90
30250;DHT22;17064;47.974;13.826;2023-02-04T01:47:26;3.60;99.90
30250;DHT22;17064;47.974;13.826;2023-02-04T01:52:33;3.60;99.90
30250;DHT22;17064;47.974;13.826;2023-02-04T01:57:35;3.60;99.90
30250;DHT22;17064;47.974;13.826;2023-02-04T02:02:47;3.60;99.90
30250;DHT22;17064;47.974;13.826;2023-02-04T02:07:51;3.70;99.90
30250;DHT22;17064;47.974;13.826;2023-02-04T02:12:53;3.70;99.90
30250;DHT22;17064;47.974;13.826;2023-02-04T02:17:55;3.70;99.90
30250;DHT22;17064;47.974;13.826;2023-02-04T02:28:22;3.70;99.90
30250;DHT22;17064;47.974;13.826;2023-02-04T02:33:23;3.80;99.90
30250;DHT22;17064;47.974;13.826;2023-02-04T02:38:25;3.70;99.90
30250;DHT22;17064;47.974;13.826;2023-02-04T02:43:27;3.70;99.90
30250;DHT22;17064;47.974;13.826;2023-02-04T02:48:28;3.70;99.90
30250;DHT22;17064;47.974;13.826;2023-02-04T02:53:29;3.80;99.90
30250;DHT22;17064;47.974;13.826;2023-02-04T02:58:31;3.70;99.90
30250;DHT22;17064;47.974;13.826;2023-02-04T03:03:35;3.70;99.90
30250;DHT22;17064;47.974;13.826;2023-02-04T03:08:38;3.70;99.90
30250;DHT22;17064;47.974;13.826;2023-02-04T03:13:40;3.70;99.90
30250;DHT22;17064;47.974;13.826;2023-02-04T03:18:41;3.70;99.90
30250;DHT22;17064;47.974;13.826;2023-02-04T03:23:42;3.70;99.90
30250;DHT22;17064;47.974;13.826;2023-02-04T03:28:42;3.80;99.90
30250;DHT22;17064;47.974;13.826;2023-02-04T03:33:43;3.80;99.90
30250;DHT22;17064;47.974;13.826;2023-02-04T03:38:44;3.70;99.90
30250;DHT22;17064;47.974;13.826;2023-02-04T03:43:45;3.70;99.90
30250;DHT22;17064;47.974;13.826;2023-02-04T03:48:45;3.60;99.90
30250;DHT22;17064;47.974;13.826;2023-02-04T03:53:46;3.60;99.90
30250;DHT22;17064;47.974;13.826;2023-02-04T03:58:47;3.50;99.90
30250;DHT22;17064;47.974;13.826;2023-02-04T04:03:47;3.50;99.90
30250;DHT22;17064;47.974;13.826;2023-02-04T04:08:48;3.50;99.90
30250;DHT22;17064;47.974;13.826;2023-02-04T04:13:49;3.50;99.90
30250;DHT22;17064;47.974;13.826;2023-02-04T04:18:49;3.60;99.90
30250;DHT22;17064;47.974;13.826;2023-02-04T04:23:50;3.60;99.90
30250;DHT22;17064;47.974;13.826;2023-02-04T04:28:51;3.50;99.90
30250;DHT22;17064;47.974;13.826;2023-02-04T04:33:52;3.50;99.90
30250;DHT22;17064;47.974;13.826;2023-02-04T04:38:53;3.50;99.90
30250;DHT22;17064;47.974;13.826;2023-02-04T04:43:53;3.40;99.90
30250;DHT22;17064;47.974;13.826;2023-02-04T04:48:54;3.40;99.90
30250;DHT22;17064;47.974;13.826;2023-02-04T04:53:55;3.40;99.90
30250;DHT22;17064;47.974;13.826;2023-02-04T04:58:55;3.40;99.90
30250;DHT22;17064;47.974;13.826;2023-02-04T05:03:56;3.40;99.90
30250;DHT22;17064;47.974;13.826;2023-02-04T05:08:57;3.50;99.90
30250;DHT22;17064;47.974;13.826;2023-02-04T05:13:59;3.50;99.90
30250;DHT22;17064;47.974;13.826;2023-02-04T05:18:59;3.40;99.90
30250;DHT22;17064;47.974;13.826;2023-02-04T05:24:00;3.40;99.90
30250;DHT22;17064;47.974;13.826;2023-02-04T05:29:01;3.40;99.90
30250;DHT22;17064;47.974;13.826;2023-02-04T05:34:02;3.40;99.90
30250;DHT22;17064;47.974;13.826;2023-02-04T05:39:02;3.40;99.90
30250;DHT22;17064;47.974;13.826;2023-02-04T05:44:03;3.40;99.90
30250;DHT22;17064;47.974;13.826;2023-02-04T05:49:04;3.40;99.90
30250;DHT22;17064;47.974;13.826;2023-02-04T05:54:05;3.30;99.90
30250;DHT22;17064;47.974;13.826;2023-02-04T05:59:06;3.30;99.90
30250;DHT22;17064;47.974;13.826;2023-02-04T06:04:06;3.40;99.90
30250;DHT22;17064;47.974;13.826;2023-02-04T06:09:07;3.30;99.90
30250;DHT22;17064;47.974;13.826;2023-02-04T06:14:08;3.20;99.90
30250;DHT22;17064;47.974;13.826;2023-02-04T06:19:10;3.20;99.90
30250;DHT22;17064;47.974;13.826;2023-02-04T06:24:11;3.20;99.90
30250;DHT22;17064;47.974;13.826;2023-02-04T06:29:11;3.20;99.90
30250;DHT22;17064;47.974;13.826;2023-02-04T06:34:12;3.20;99.90
30250;DHT22;17064;47.974;13.826;2023-02-04T06:39:16;3.30;99.90
30250;DHT22;17064;47.974;13.826;2023-02-04T06:44:16;3.40;99.90
30250;DHT22;17064;47.974;13.826;2023-02-04T06:49:17;3.20;99.90
30250;DHT22;17064;47.974;13.826;2023-02-04T06:54:18;2.70;99.90
30250;DHT22;17064;47.974;13.826;2023-02-04T06:59:18;2.50;99.90
30250;DHT22;17064;47.974;13.826;2023-02-04T07:04:19;2.40;99.90
30250;DHT22;17064;47.974;13.826;2023-02-04T07:09:20;2.40;99.90
30250;DHT22;17064;47.974;13.826;2023-02-04T07:14:21;2.20;99.90
30250;DHT22;17064;47.974;13.826;2023-02-04T07:19:22;2.30;99.90
30250;DHT22;17064;47.974;13.826;2023-02-04T07:24:23;2.40;99.90
30250;DHT22;17064;47.974;13.826;2023-02-04T07:29:23;2.50;99.90
30250;DHT22;17064;47.974;13.826;2023-02-04T07:34:25;2.60;99.90
30250;DHT22;17064;47.974;13.826;2023-02-04T07:39:25;2.70;99.90
30250;DHT22;17064;47.974;13.826;2023-02-04T07:44:26;2.80;99.90
30250;DHT22;17064;47.974;13.826;2023-02-04T07:49:27;2.80;99.90
30250;DHT22;17064;47.974;13.826;2023-02-04T07:54:28;2.80;99.90
30250;DHT22;17064;47.974;13.826;2023-02-04T07:59:29;2.90;99.90
30250;DHT22;17064;47.974;13.826;2023-02-04T08:04:29;2.90;99.90
30250;DHT22;17064;47.974;13.826;2023-02-04T08:09:30;3.00;99.90
30250;DHT22;17064;47.974;13.826;2023-02-04T08:14:31;2.90;99.90
30250;DHT22;17064;47.974;13.826;2023-02-04T08:19:32;2.90;99.90
30250;DHT22;17064;47.974;13.826;2023-02-04T08:24:32;2.60;99.90
30250;DHT22;17064;47.974;13.826;2023-02-04T08:29:33;2.40;99.90
30250;DHT22;17064;47.974;13.826;2023-02-04T08:34:34;2.30;99.90
30250;DHT22;17064;47.974;13.826;2023-02-04T08:39:35;2.20;99.90
30250;DHT22;17064;47.974;13.826;2023-02-04T08:44:36;2.20;99.90
30250;DHT22;17064;47.974;13.826;2023-02-04T08:49:36;2.20;99.90
30250;DHT22;17064;47.974;13.826;2023-02-04T08:54:37;2.30;99.90
30250;DHT22;17064;47.974;13.826;2023-02-04T08:59:38;2.30;99.90
30250;DHT22;17064;47.974;13.826;2023-02-04T09:04:38;2.40;99.90
30250;DHT22;17064;47.974;13.826;2023-02-04T09:09:39;2.40;99.90
30250;DHT22;17064;47.974;13.826;2023-02-04T09:14:40;2.40;99.90
30250;DHT22;17064;47.974;13.826;2023-02-04T09:19:41;2.70;99.90
30250;DHT22;17064;47.974;13.826;2023-02-04T09:24:41;3.10;99.90
30250;DHT22;17064;47.974;13.826;2023-02-04T09:29:42;3.60;99.90
30250;DHT22;17064;47.974;13.826;2023-02-04T09:34:43;4.00;99.90
30250;DHT22;17064;47.974;13.826;2023-02-04T09:39:43;4.10;99.90
30250;DHT22;17064;47.974;13.826;2023-02-04T09:44:44;4.10;99.90
30250;DHT22;17064;47.974;13.826;2023-02-04T09:49:45;4.00;99.90
30250;DHT22;17064;47.974;13.826;2023-02-04T09:54:46;3.80;99.90
30250;DHT22;17064;47.974;13.826;2023-02-04T09:59:48;3.90;99.90
30250;DHT22;17064;47.974;13.826;2023-02-04T10:04:51;3.90;99.90
30250;DHT22;17064;47.974;13.826;2023-02-04T10:09:54;3.90;99.90
30250;DHT22;17064;47.974;13.826;2023-02-04T10:14:55;3.80;99.90
30250;DHT22;17064;47.974;13.826;2023-02-04T10:19:56;4.00;99.90
30250;DHT22;17064;47.974;13.826;2023-02-04T10:24:57;4.10;99.90
30250;DHT22;17064;47.974;13.826;2023-02-04T10:29:59;3.90;99.90
30250;DHT22;17064;47.974;13.826;2023-02-04T10:35:01;3.80;99.90
30250;DHT22;17064;47.974;13.826;2023-02-04T10:40:02;4.00;99.90
30250;DHT22;17064;47.974;13.826;2023-02-04T10:45:03;4.10;99.90
30250;DHT22;17064;47.974;13.826;2023-02-04T10:50:15;4.20;99.90
30250;DHT22;17064;47.974;13.826;2023-02-04T10:55:19;4.10;99.90
30250;DHT22;17064;47.974;13.826;2023-02-04T11:00:24;4.00;99.90
30250;DHT22;17064;47.974;13.826;2023-02-04T11:05:31;4.00;99.90
30250;DHT22;17064;47.974;13.826;2023-02-04T11:10:33;4.00;99.90
30250;DHT22;17064;47.974;13.826;2023-02-04T11:15:43;4.00;99.90
30250;DHT22;17064;47.974;13.826;2023-02-04T11:20:44;4.00;99.90
30250;DHT22;17064;47.974;13.826;2023-02-04T11:25:45;4.00;99.90
30250;DHT22;17064;47.974;13.826;2023-02-04T11:30:56;3.90;99.90
30250;DHT22;17064;47.974;13.826;2023-02-04T11:36:03;3.80;99.90
30250;DHT22;17064;47.974;13.826;2023-02-04T11:41:04;3.70;99.90
30250;DHT22;17064;47.974;13.826;2023-02-04T11:46:16;3.70;99.90
30250;DHT22;17064;47.974;13.826;2023-02-04T11:51:20;3.70;99.90
30250;DHT22;17064;47.974;13.826;2023-02-04T11:56:23;3.80;99.90
30250;DHT22;17064;47.974;13.826;2023-02-04T12:01:31;3.70;99.90
30250;DHT22;17064;47.974;13.826;2023-02-04T12:06:35;3.80;99.90
30250;DHT22;17064;47.974;13.826;2023-02-04T12:11:36;3.80;99.90
30250;DHT22;17064;47.974;13.826;2023-02-04T12:16:50;3.70;99.90
30250;DHT22;17064;47.974;13.826;2023-02-04T12:21:52;3.70;99.90
30250;DHT22;17064;47.974;13.826;2023-02-04T12:26:53;3.80;99.90
30250;DHT22;17064;47.974;13.826;2023-02-04T12:31:56;3.70;99.90
30250;DHT22;17064;47.974;13.826;2023-02-04T12:36:56;3.50;99.90
30250;DHT22;17064;47.974;13.826;2023-02-04T12:41:57;3.30;99.90
30250;DHT22;17064;47.974;13.826;2023-02-04T12:46:58;3.10;99.90
30250;DHT22;17064;47.974;13.826;2023-02-04T12:51:59;3.00;99.90
30250;DHT22;17064;47.974;13.826;2023-02-04T12:57:01;2.90;99.90
30250;DHT22;17064;47.974;13.826;2023-02-04T13:02:02;2.90;99.90
30250;DHT22;17064;47.974;13.826;2023-02-04T13:07:03;2.90;99.90
30250;DHT22;17064;47.974;13.826;2023-02-04T13:12:07;2.90;99.90
30250;DHT22;17064;47.974;13.826;2023-02-04T13:17:07;2.90;99.90
30250;DHT22;17064;47.974;13.826;2023-02-04T13:22:08;3.00;99.90
30250;DHT22;17064;47.974;13.826;2023-02-04T13:27:09;2.90;99.90
30250;DHT22;17064;47.974;13.826;2023-02-04T13:32:09;2.90;99.90
30250;DHT22;17064;47.974;13.826;2023-02-04T13:37:10;2.80;98.00
30250;DHT22;17064;47.974;13.826;2023-02-04T13:42:11;2.90;95.20
30250;DHT22;17064;47.974;13.826;2023-02-04T13:47:12;2.80;93.50
30250;DHT22;17064;47.974;13.826;2023-02-04T13:52:12;2.80;94.00
30250;DHT22;17064;47.974;13.826;2023-02-04T13:57:13;2.70;95.20
30250;DHT22;17064;47.974;13.826;2023-02-04T14:02:14;2.70;95.50
30250;DHT22;17064;47.974;13.826;2023-02-04T14:07:15;2.80;96.00
30250;DHT22;17064;47.974;13.826;2023-02-04T14:12:15;2.80;96.00
30250;DHT22;17064;47.974;13.826;2023-02-04T14:17:16;2.90;94.30
30250;DHT22;17064;47.974;13.826;2023-02-04T14:22:17;2.80;94.60
30250;DHT22;17064;47.974;13.826;2023-02-04T14:27:18;2.80;94.80
30250;DHT22;17064;47.974;13.826;2023-02-04T14:32:19;2.70;95.60
30250;DHT22;17064;47.974;13.826;2023-02-04T14:37:20;2.60;95.70
30250;DHT22;17064;47.974;13.826;2023-02-04T14:42:21;2.50;95.00
30250;DHT22;17064;47.974;13.826;2023-02-04T14:47:23;2.50;94.70
30250;DHT22;17064;47.974;13.826;2023-02-04T14:52:25;2.40;96.30
30250;DHT22;17064;47.974;13.826;2023-02-04T14:57:25;2.30;96.80
30250;DHT22;17064;47.974;13.826;2023-02-04T15:02:26;2.30;95.40
30250;DHT22;17064;47.974;13.826;2023-02-04T15:07:27;2.30;96.80
30250;DHT22;17064;47.974;13.826;2023-02-04T15:12:28;2.30;96.10
30250;DHT22;17064;47.974;13.826;2023-02-04T15:17:29;2.30;95.90
30250;DHT22;17064;47.974;13.826;2023-02-04T15:22:29;2.30;97.40
30250;DHT22;17064;47.974;13.826;2023-02-04T15:27:30;2.30;97.20
30250;DHT22;17064;47.974;13.826;2023-02-04T15:32:31;2.20;98.40
30250;DHT22;17064;47.974;13.826;2023-02-04T15:37:32;2.20;97.80
30250;DHT22;17064;47.974;13.826;2023-02-04T15:42:33;2.20;98.30
30250;DHT22;17064;47.974;13.826;2023-02-04T15:47:34;2.20;97.90
30250;DHT22;17064;47.974;13.826;2023-02-04T15:52:34;2.30;97.30
30250;DHT22;17064;47.974;13.826;2023-02-04T15:57:35;2.30;96.80
30250;DHT22;17064;47.974;13.826;2023-02-04T16:02:36;2.30;95.90
30250;DHT22;17064;47.974;13.826;2023-02-04T16:07:37;2.20;96.50
30250;DHT22;17064;47.974;13.826;2023-02-04T16:12:38;2.10;97.50
30250;DHT22;17064;47.974;13.826;2023-02-04T16:17:39;1.90;97.10
30250;DHT22;17064;47.974;13.826;2023-02-04T16:22:40;1.80;97.80
30250;DHT22;17064;47.974;13.826;2023-02-04T16:27:41;1.60;98.70
30250;DHT22;17064;47.974;13.826;2023-02-04T16:32:42;1.60;99.30
30250;DHT22;17064;47.974;13.826;2023-02-04T16:37:42;1.40;99.90
30250;DHT22;17064;47.974;13.826;2023-02-04T16:42:43;1.40;99.90
30250;DHT22;17064;47.974;13.826;2023-02-04T16:47:44;1.40;99.90
30250;DHT22;17064;47.974;13.826;2023-02-04T16:52:45;1.50;98.70
30250;DHT22;17064;47.974;13.826;2023-02-04T16:57:46;1.50;97.90
30250;DHT22;17064;47.974;13.826;2023-02-04T17:02:46;1.60;97.70
30250;DHT22;17064;47.974;13.826;2023-02-04T17:07:47;1.50;97.40
30250;DHT22;17064;47.974;13.826;2023-02-04T17:12:48;1.50;97.20
30250;DHT22;17064;47.974;13.826;2023-02-04T17:17:49;1.50;97.10
30250;DHT22;17064;47.974;13.826;2023-02-04T17:22:50;1.50;96.80
30250;DHT22;17064;47.974;13.826;2023-02-04T17:27:51;1.40;98.60
30250;DHT22;17064;47.974;13.826;2023-02-04T17:32:52;1.30;98.90
30250;DHT22;17064;47.974;13.826;2023-02-04T17:37:53;1.30;98.40
30250;DHT22;17064;47.974;13.826;2023-02-04T17:42:54;1.30;98.60
30250;DHT22;17064;47.974;13.826;2023-02-04T17:47:55;1.30;97.70
30250;DHT22;17064;47.974;13.826;2023-02-04T17:52:56;1.30;98.60
30250;DHT22;17064;47.974;13.826;2023-02-04T17:58:00;1.30;99.90
30250;DHT22;17064;47.974;13.826;2023-02-04T18:03:01;1.10;99.90
30250;DHT22;17064;47.974;13.826;2023-02-04T18:08:28;1.10;99.90
30250;DHT22;17064;47.974;13.826;2023-02-04T18:13:34;1.20;99.90
30250;DHT22;17064;47.974;13.826;2023-02-04T18:18:38;1.10;99.90
30250;DHT22;17064;47.974;13.826;2023-02-04T18:23:39;1.00;99.90
30250;DHT22;17064;47.974;13.826;2023-02-04T18:28:43;1.10;99.90
30250;DHT22;17064;47.974;13.826;2023-02-04T18:33:44;1.10;98.90
30250;DHT22;17064;47.974;13.826;2023-02-04T18:38:45;1.10;97.30
30250;DHT22;17064;47.974;13.826;2023-02-04T18:43:48;1.10;96.70
30250;DHT22;17064;47.974;13.826;2023-02-04T18:54:32;1.10;96.60
30250;DHT22;17064;47.974;13.826;2023-02-04T18:59:34;1.00;97.40
30250;DHT22;17064;47.974;13.826;2023-02-04T19:04:35;0.90;98.10
30250;DHT22;17064;47.974;13.826;2023-02-04T19:09:36;0.90;97.40
30250;DHT22;17064;47.974;13.826;2023-02-04T19:14:39;0.90;97.50
30250;DHT22;17064;47.974;13.826;2023-02-04T19:19:53;0.90;98.40
30250;DHT22;17064;47.974;13.826;2023-02-04T19:25:45;0.80;98.30
30250;DHT22;17064;47.974;13.826;2023-02-04T19:35:42;0.70;98.40
30250;DHT22;17064;47.974;13.826;2023-02-04T19:40:50;0.70;99.60
30250;DHT22;17064;47.974;13.826;2023-02-04T19:45:52;0.60;99.90
30250;DHT22;17064;47.974;13.826;2023-02-04T19:50:53;0.50;99.90
30250;DHT22;17064;47.974;13.826;2023-02-04T19:55:54;0.50;99.90
30250;DHT22;17064;47.974;13.826;2023-02-04T20:06:08;0.40;99.90
30250;DHT22;17064;47.974;13.826;2023-02-04T20:16:45;0.40;99.90
30250;DHT22;17064;47.974;13.826;2023-02-04T20:27:28;0.30;99.90
30250;DHT22;17064;47.974;13.826;2023-02-04T20:32:36;0.20;99.90
30250;DHT22;17064;47.974;13.826;2023-02-04T20:37:38;0.20;99.90
30250;DHT22;17064;47.974;13.826;2023-02-04T20:43:05;0.10;99.90
30250;DHT22;17064;47.974;13.826;2023-02-04T20:53:36;0.10;99.90
30250;DHT22;17064;47.974;13.826;2023-02-04T20:58:42;0.10;99.90
30250;DHT22;17064;47.974;13.826;2023-02-04T21:03:44;0.10;99.90
30250;DHT22;17064;47.974;13.826;2023-02-04T21:08:46;0.00;99.90
30250;DHT22;17064;47.974;13.826;2023-02-04T21:13:48;0.10;99.90
30250;DHT22;17064;47.974;13.826;2023-02-04T21:18:49;0.10;99.90
30250;DHT22;17064;47.974;13.826;2023-02-04T21:23:50;0.10;99.90
30250;DHT22;17064;47.974;13.826;2023-02-04T21:28:51;0.10;99.90
30250;DHT22;17064;47.974;13.826;2023-02-04T21:33:52;0.00;99.90
30250;DHT22;17064;47.974;13.826;2023-02-04T21:38:54;0.00;99.90
30250;DHT22;17064;47.974;13.826;2023-02-04T21:43:55;0.00;99.90
30250;DHT22;17064;47.974;13.826;2023-02-04T21:48:56;-0.10;99.90
30250;DHT22;17064;47.974;13.826;2023-02-04T21:53:56;-0.10;99.90
30250;DHT22;17064;47.974;13.826;2023-02-04T21:58:59;-0.10;99.90
30250;DHT22;17064;47.974;13.826;2023-02-04T22:04:00;-0.20;99.90
30250;DHT22;17064;47.974;13.826;2023-02-04T22:09:00;-0.20;99.90
30250;DHT22;17064;47.974;13.826;2023-02-04T22:14:01;-0.20;99.90
30250;DHT22;17064;47.974;13.826;2023-02-04T22:19:02;-0.20;99.90
30250;DHT22;17064;47.974;13.826;2023-02-04T22:24:03;-0.20;99.90
30250;DHT22;17064;47.974;13.826;2023-02-04T22:29:04;-0.30;99.90
30250;DHT22;17064;47.974;13.826;2023-02-04T22:34:04;-0.20;99.90
30250;DHT22;17064;47.974;13.826;2023-02-04T22:39:05;-0.30;99.90
30250;DHT22;17064;47.974;13.826;2023-02-04T22:44:06;-0.20;99.90
30250;DHT22;17064;47.974;13.826;2023-02-04T22:49:07;-0.30;99.90
30250;DHT22;17064;47.974;13.826;2023-02-04T22:54:08;-0.30;99.90
30250;DHT22;17064;47.974;13.826;2023-02-04T22:59:09;-0.30;99.90
30250;DHT22;17064;47.974;13.826;2023-02-04T23:04:09;-0.30;99.90
30250;DHT22;17064;47.974;13.826;2023-02-04T23:09:10;-0.30;99.90
30250;DHT22;17064;47.974;13.826;2023-02-04T23:14:11;-0.30;99.90
30250;DHT22;17064;47.974;13.826;2023-02-04T23:19:11;-0.40;99.90
30250;DHT22;17064;47.974;13.826;2023-02-04T23:24:12;-0.40;99.90
30250;DHT22;17064;47.974;13.826;2023-02-04T23:29:13;-0.40;99.90
30250;DHT22;17064;47.974;13.826;2023-02-04T23:34:14;-0.40;99.90
30250;DHT22;17064;47.974;13.826;2023-02-04T23:39:14;-0.30;99.90
30250;DHT22;17064;47.974;13.826;2023-02-04T23:44:16;-0.40;99.90
30250;DHT22;17064;47.974;13.826;2023-02-04T23:49:16;-0.40;99.90
30250;DHT22;17064;47.974;13.826;2023-02-04T23:54:17;-0.40;99.90
30250;DHT22;17064;47.974;13.826;2023-02-04T23:59:18;-0.40;99.90
